sensor_id;sensor_type;location;lat;lon;timestamp;P1;durP1;ratioP1;P2;durP2;ratioP2
74158;SDS011;62511;47.970;11.774;2023-02-28T00:00:29;18.08;;;7.03;;
74158;SDS011;62511;47.970;11.774;2023-02-28T00:02:56;17.83;;;7.60;;
74158;SDS011;62511;47.970;11.774;2023-02-28T00:05:23;24.90;;;7.22;;
74158;SDS011;62511;47.970;11.774;2023-02-28T00:07:49;17.45;;;6.57;;
74158;SDS011;62511;47.970;11.774;2023-02-28T00:10:16;21.83;;;7.90;;
74158;SDS011;62511;47.970;11.774;2023-02-28T00:12:49;10.95;;;5.18;;
74158;SDS011;62511;47.970;11.774;2023-02-28T00:15:15;4.80;;;3.60;;
74158;SDS011;62511;47.970;11.774;2023-02-28T00:17:41;13.77;;;5.35;;
74158;SDS011;62511;47.970;11.774;2023-02-28T00:20:08;10.10;;;4.35;;
74158;SDS011;62511;47.970;11.774;2023-02-28T00:22:35;16.77;;;3.97;;
74158;SDS011;62511;47.970;11.774;2023-02-28T00:25:01;7.25;;;3.55;;
74158;SDS011;62511;47.970;11.774;2023-02-28T00:27:27;11.35;;;4.63;;
74158;SDS011;62511;47.970;11.774;2023-02-28T00:29:53;16.80;;;5.30;;
74158;SDS011;62511;47.970;11.774;2023-02-28T00:32:19;8.80;;;4.10;;
74158;SDS011;62511;47.970;11.774;2023-02-28T00:34:45;10.07;;;3.65;;
74158;SDS011;62511;47.970;11.774;2023-02-28T00:37:12;15.25;;;6.28;;
74158;SDS011;62511;47.970;11.774;2023-02-28T00:39:38;16.25;;;6.22;;
74158;SDS011;62511;47.970;11.774;2023-02-28T00:42:05;9.43;;;5.47;;
74158;SDS011;62511;47.970;11.774;2023-02-28T00:44:31;15.35;;;6.18;;
74158;SDS011;62511;47.970;11.774;2023-02-28T00:46:58;9.13;;;4.25;;
74158;SDS011;62511;47.970;11.774;2023-02-28T00:49:24;18.88;;;7.18;;
74158;SDS011;62511;47.970;11.774;2023-02-28T00:51:50;9.55;;;4.13;;
74158;SDS011;62511;47.970;11.774;2023-02-28T00:54:17;27.98;;;10.20;;
74158;SDS011;62511;47.970;11.774;2023-02-28T00:56:43;15.88;;;5.53;;
74158;SDS011;62511;47.970;11.774;2023-02-28T00:59:10;18.40;;;5.97;;
74158;SDS011;62511;47.970;11.774;2023-02-28T01:01:37;13.10;;;4.47;;
74158;SDS011;62511;47.970;11.774;2023-02-28T01:04:03;14.52;;;5.65;;
74158;SDS011;62511;47.970;11.774;2023-02-28T01:06:29;9.32;;;4.03;;
74158;SDS011;62511;47.970;11.774;2023-02-28T01:08:56;15.35;;;4.85;;
74158;SDS011;62511;47.970;11.774;2023-02-28T01:11:22;8.35;;;3.67;;
74158;SDS011;62511;47.970;11.774;2023-02-28T01:13:48;2.95;;;1.63;;
74158;SDS011;62511;47.970;11.774;2023-02-28T01:16:14;8.23;;;4.13;;
74158;SDS011;62511;47.970;11.774;2023-02-28T01:18:40;8.90;;;4.43;;
74158;SDS011;62511;47.970;11.774;2023-02-28T01:21:10;7.80;;;4.07;;
74158;SDS011;62511;47.970;11.774;2023-02-28T01:23:37;7.30;;;4.38;;
74158;SDS011;62511;47.970;11.774;2023-02-28T01:26:05;5.18;;;4.05;;
74158;SDS011;62511;47.970;11.774;2023-02-28T01:28:32;14.30;;;5.97;;
74158;SDS011;62511;47.970;11.774;2023-02-28T01:30:58;4.53;;;3.83;;
74158;SDS011;62511;47.970;11.774;2023-02-28T01:33:24;5.05;;;2.92;;
74158;SDS011;62511;47.970;11.774;2023-02-28T01:35:57;5.40;;;3.08;;
74158;SDS011;62511;47.970;11.774;2023-02-28T01:38:23;6.35;;;3.25;;
74158;SDS011;62511;47.970;11.774;2023-02-28T01:40:51;3.15;;;2.42;;
74158;SDS011;62511;47.970;11.774;2023-02-28T01:43:25;6.70;;;2.72;;
74158;SDS011;62511;47.970;11.774;2023-02-28T01:45:52;5.78;;;2.45;;
74158;SDS011;62511;47.970;11.774;2023-02-28T01:48:18;9.15;;;2.80;;
74158;SDS011;62511;47.970;11.774;2023-02-28T01:50:45;6.68;;;2.17;;
74158;SDS011;62511;47.970;11.774;2023-02-28T01:53:13;4.32;;;2.65;;
74158;SDS011;62511;47.970;11.774;2023-02-28T01:55:40;5.50;;;3.25;;
74158;SDS011;62511;47.970;11.774;2023-02-28T01:58:07;4.70;;;2.88;;
74158;SDS011;62511;47.970;11.774;2023-02-28T02:00:34;3.38;;;2.28;;
74158;SDS011;62511;47.970;11.774;2023-02-28T02:03:01;5.68;;;3.28;;
74158;SDS011;62511;47.970;11.774;2023-02-28T02:05:30;3.40;;;1.63;;
74158;SDS011;62511;47.970;11.774;2023-02-28T02:07:57;3.10;;;1.20;;
74158;SDS011;62511;47.970;11.774;2023-02-28T02:10:31;7.18;;;2.63;;
74158;SDS011;62511;47.970;11.774;2023-02-28T02:13:11;2.63;;;1.90;;
74158;SDS011;62511;47.970;11.774;2023-02-28T02:15:41;4.95;;;2.95;;
74158;SDS011;62511;47.970;11.774;2023-02-28T02:31:23;3.28;;;2.25;;
74158;SDS011;62511;47.970;11.774;2023-02-28T02:44:13;3.70;;;2.10;;
74158;SDS011;62511;47.970;11.774;2023-02-28T02:46:41;5.68;;;3.17;;
74158;SDS011;62511;47.970;11.774;2023-02-28T02:49:10;6.40;;;2.42;;
74158;SDS011;62511;47.970;11.774;2023-02-28T02:51:38;5.53;;;3.25;;
74158;SDS011;62511;47.970;11.774;2023-02-28T02:56:33;9.80;;;4.32;;
74158;SDS011;62511;47.970;11.774;2023-02-28T02:59:01;8.85;;;3.10;;
74158;SDS011;62511;47.970;11.774;2023-02-28T03:01:28;4.03;;;3.42;;
74158;SDS011;62511;47.970;11.774;2023-02-28T03:04:01;22.13;;;8.05;;
74158;SDS011;62511;47.970;11.774;2023-02-28T03:06:28;2.17;;;2.03;;
74158;SDS011;62511;47.970;11.774;2023-02-28T03:08:54;13.23;;;5.13;;
74158;SDS011;62511;47.970;11.774;2023-02-28T03:11:20;9.57;;;4.57;;
74158;SDS011;62511;47.970;11.774;2023-02-28T03:24:33;6.22;;;3.75;;
74158;SDS011;62511;47.970;11.774;2023-02-28T03:30:00;15.45;;;7.57;;
74158;SDS011;62511;47.970;11.774;2023-02-28T03:35:08;11.50;;;6.25;;
74158;SDS011;62511;47.970;11.774;2023-02-28T03:37:37;4.25;;;2.97;;
74158;SDS011;62511;47.970;11.774;2023-02-28T03:40:11;7.88;;;3.42;;
74158;SDS011;62511;47.970;11.774;2023-02-28T03:42:37;12.95;;;3.55;;
74158;SDS011;62511;47.970;11.774;2023-02-28T03:45:05;6.90;;;3.15;;
74158;SDS011;62511;47.970;11.774;2023-02-28T03:47:39;5.75;;;4.15;;
74158;SDS011;62511;47.970;11.774;2023-02-28T03:50:10;6.53;;;3.97;;
74158;SDS011;62511;47.970;11.774;2023-02-28T03:52:45;5.82;;;3.20;;
74158;SDS011;62511;47.970;11.774;2023-02-28T03:55:13;6.00;;;3.55;;
74158;SDS011;62511;47.970;11.774;2023-02-28T03:57:44;5.32;;;4.30;;
74158;SDS011;62511;47.970;11.774;2023-02-28T04:00:17;4.05;;;2.40;;
74158;SDS011;62511;47.970;11.774;2023-02-28T04:02:44;9.18;;;3.70;;
74158;SDS011;62511;47.970;11.774;2023-02-28T04:05:10;14.32;;;4.75;;
74158;SDS011;62511;47.970;11.774;2023-02-28T04:07:37;6.25;;;3.22;;
74158;SDS011;62511;47.970;11.774;2023-02-28T04:10:04;8.85;;;4.28;;
74158;SDS011;62511;47.970;11.774;2023-02-28T04:12:30;7.03;;;4.97;;
74158;SDS011;62511;47.970;11.774;2023-02-28T04:14:56;10.40;;;5.03;;
74158;SDS011;62511;47.970;11.774;2023-02-28T04:17:22;5.32;;;3.70;;
74158;SDS011;62511;47.970;11.774;2023-02-28T04:19:48;4.30;;;2.97;;
74158;SDS011;62511;47.970;11.774;2023-02-28T04:22:14;8.50;;;4.40;;
74158;SDS011;62511;47.970;11.774;2023-02-28T04:24:42;5.93;;;3.45;;
74158;SDS011;62511;47.970;11.774;2023-02-28T04:27:08;7.47;;;3.80;;
74158;SDS011;62511;47.970;11.774;2023-02-28T04:29:34;10.98;;;4.30;;
74158;SDS011;62511;47.970;11.774;2023-02-28T04:32:01;8.27;;;5.38;;
74158;SDS011;62511;47.970;11.774;2023-02-28T04:34:28;1.38;;;1.27;;
74158;SDS011;62511;47.970;11.774;2023-02-28T04:36:55;10.05;;;5.68;;
74158;SDS011;62511;47.970;11.774;2023-02-28T04:39:21;10.57;;;3.72;;
74158;SDS011;62511;47.970;11.774;2023-02-28T04:44:16;10.50;;;4.75;;
74158;SDS011;62511;47.970;11.774;2023-02-28T04:46:44;5.53;;;4.13;;
74158;SDS011;62511;47.970;11.774;2023-02-28T04:49:11;7.53;;;2.72;;
74158;SDS011;62511;47.970;11.774;2023-02-28T04:51:37;9.95;;;5.45;;
74158;SDS011;62511;47.970;11.774;2023-02-28T04:54:03;9.90;;;4.50;;
74158;SDS011;62511;47.970;11.774;2023-02-28T04:56:29;10.38;;;5.25;;
74158;SDS011;62511;47.970;11.774;2023-02-28T04:58:55;13.38;;;4.78;;
74158;SDS011;62511;47.970;11.774;2023-02-28T05:01:23;15.10;;;5.72;;
74158;SDS011;62511;47.970;11.774;2023-02-28T05:03:49;8.18;;;4.43;;
74158;SDS011;62511;47.970;11.774;2023-02-28T05:06:16;7.57;;;5.22;;
74158;SDS011;62511;47.970;11.774;2023-02-28T05:08:43;13.68;;;5.28;;
74158;SDS011;62511;47.970;11.774;2023-02-28T05:11:28;13.88;;;7.50;;
74158;SDS011;62511;47.970;11.774;2023-02-28T05:13:58;13.68;;;5.32;;
74158;SDS011;62511;47.970;11.774;2023-02-28T05:16:24;11.82;;;6.78;;
74158;SDS011;62511;47.970;11.774;2023-02-28T05:18:50;13.10;;;5.28;;
74158;SDS011;62511;47.970;11.774;2023-02-28T05:24:00;14.93;;;7.13;;
74158;SDS011;62511;47.970;11.774;2023-02-28T05:26:27;20.45;;;7.68;;
74158;SDS011;62511;47.970;11.774;2023-02-28T05:28:53;15.25;;;7.43;;
74158;SDS011;62511;47.970;11.774;2023-02-28T05:31:19;11.13;;;6.13;;
74158;SDS011;62511;47.970;11.774;2023-02-28T05:33:45;15.73;;;6.60;;
74158;SDS011;62511;47.970;11.774;2023-02-28T05:36:11;15.98;;;6.57;;
74158;SDS011;62511;47.970;11.774;2023-02-28T05:38:37;18.10;;;8.02;;
74158;SDS011;62511;47.970;11.774;2023-02-28T05:41:07;18.13;;;8.48;;
74158;SDS011;62511;47.970;11.774;2023-02-28T05:43:34;10.63;;;5.88;;
74158;SDS011;62511;47.970;11.774;2023-02-28T05:46:02;11.32;;;4.65;;
74158;SDS011;62511;47.970;11.774;2023-02-28T05:48:29;11.40;;;5.68;;
74158;SDS011;62511;47.970;11.774;2023-02-28T05:50:56;12.80;;;6.38;;
74158;SDS011;62511;47.970;11.774;2023-02-28T05:53:22;11.15;;;6.07;;
74158;SDS011;62511;47.970;11.774;2023-02-28T05:55:48;33.92;;;12.32;;
74158;SDS011;62511;47.970;11.774;2023-02-28T05:58:14;17.67;;;7.68;;
74158;SDS011;62511;47.970;11.774;2023-02-28T06:00:40;14.20;;;6.85;;
74158;SDS011;62511;47.970;11.774;2023-02-28T06:03:06;15.43;;;7.57;;
74158;SDS011;62511;47.970;11.774;2023-02-28T06:05:32;16.40;;;6.65;;
74158;SDS011;62511;47.970;11.774;2023-02-28T06:07:59;27.08;;;10.93;;
74158;SDS011;62511;47.970;11.774;2023-02-28T06:10:25;11.35;;;6.82;;
74158;SDS011;62511;47.970;11.774;2023-02-28T06:12:51;13.07;;;5.82;;
74158;SDS011;62511;47.970;11.774;2023-02-28T06:15:17;20.70;;;8.63;;
74158;SDS011;62511;47.970;11.774;2023-02-28T06:17:43;13.48;;;6.30;;
74158;SDS011;62511;47.970;11.774;2023-02-28T06:20:10;24.33;;;10.63;;
74158;SDS011;62511;47.970;11.774;2023-02-28T06:22:37;14.77;;;6.18;;
74158;SDS011;62511;47.970;11.774;2023-02-28T06:25:04;17.90;;;8.20;;
74158;SDS011;62511;47.970;11.774;2023-02-28T06:27:30;18.65;;;7.18;;
74158;SDS011;62511;47.970;11.774;2023-02-28T06:29:57;17.88;;;8.00;;
74158;SDS011;62511;47.970;11.774;2023-02-28T06:32:23;13.13;;;5.50;;
74158;SDS011;62511;47.970;11.774;2023-02-28T06:34:49;26.30;;;10.65;;
74158;SDS011;62511;47.970;11.774;2023-02-28T06:37:15;19.58;;;9.52;;
74158;SDS011;62511;47.970;11.774;2023-02-28T06:39:42;19.23;;;9.00;;
74158;SDS011;62511;47.970;11.774;2023-02-28T06:42:08;28.83;;;10.75;;
74158;SDS011;62511;47.970;11.774;2023-02-28T06:44:34;31.75;;;11.50;;
74158;SDS011;62511;47.970;11.774;2023-02-28T06:47:04;27.85;;;10.00;;
74158;SDS011;62511;47.970;11.774;2023-02-28T06:49:33;43.03;;;15.45;;
74158;SDS011;62511;47.970;11.774;2023-02-28T06:51:59;18.17;;;8.50;;
74158;SDS011;62511;47.970;11.774;2023-02-28T06:54:25;34.72;;;13.40;;
74158;SDS011;62511;47.970;11.774;2023-02-28T06:56:52;23.15;;;11.68;;
74158;SDS011;62511;47.970;11.774;2023-02-28T06:59:19;40.58;;;15.20;;
74158;SDS011;62511;47.970;11.774;2023-02-28T07:01:46;26.40;;;9.43;;
74158;SDS011;62511;47.970;11.774;2023-02-28T07:04:12;26.80;;;10.05;;
74158;SDS011;62511;47.970;11.774;2023-02-28T07:06:38;23.55;;;9.75;;
74158;SDS011;62511;47.970;11.774;2023-02-28T07:09:04;37.17;;;13.45;;
74158;SDS011;62511;47.970;11.774;2023-02-28T07:11:30;27.13;;;10.98;;
74158;SDS011;62511;47.970;11.774;2023-02-28T07:13:57;40.40;;;15.65;;
74158;SDS011;62511;47.970;11.774;2023-02-28T07:16:24;25.55;;;11.02;;
74158;SDS011;62511;47.970;11.774;2023-02-28T07:18:52;29.77;;;12.57;;
74158;SDS011;62511;47.970;11.774;2023-02-28T07:21:18;22.95;;;10.15;;
74158;SDS011;62511;47.970;11.774;2023-02-28T07:23:44;31.67;;;12.02;;
74158;SDS011;62511;47.970;11.774;2023-02-28T07:26:14;26.88;;;10.07;;
74158;SDS011;62511;47.970;11.774;2023-02-28T07:28:43;18.08;;;7.97;;
74158;SDS011;62511;47.970;11.774;2023-02-28T07:31:09;32.13;;;11.20;;
74158;SDS011;62511;47.970;11.774;2023-02-28T07:33:36;29.77;;;12.23;;
74158;SDS011;62511;47.970;11.774;2023-02-28T07:36:06;27.25;;;12.60;;
74158;SDS011;62511;47.970;11.774;2023-02-28T07:38:34;25.25;;;12.45;;
74158;SDS011;62511;47.970;11.774;2023-02-28T07:41:00;34.90;;;12.70;;
74158;SDS011;62511;47.970;11.774;2023-02-28T07:43:29;32.80;;;11.57;;
74158;SDS011;62511;47.970;11.774;2023-02-28T07:45:55;33.20;;;11.70;;
74158;SDS011;62511;47.970;11.774;2023-02-28T07:48:21;22.02;;;10.18;;
74158;SDS011;62511;47.970;11.774;2023-02-28T07:50:53;31.35;;;13.10;;
74158;SDS011;62511;47.970;11.774;2023-02-28T07:53:20;39.22;;;14.57;;
74158;SDS011;62511;47.970;11.774;2023-02-28T07:55:46;21.65;;;10.32;;
74158;SDS011;62511;47.970;11.774;2023-02-28T07:58:12;22.90;;;10.05;;
74158;SDS011;62511;47.970;11.774;2023-02-28T08:00:38;44.90;;;11.93;;
74158;SDS011;62511;47.970;11.774;2023-02-28T08:03:04;27.30;;;10.55;;
74158;SDS011;62511;47.970;11.774;2023-02-28T08:05:30;38.13;;;10.90;;
74158;SDS011;62511;47.970;11.774;2023-02-28T08:07:56;27.63;;;10.25;;
74158;SDS011;62511;47.970;11.774;2023-02-28T08:10:22;32.80;;;10.98;;
74158;SDS011;62511;47.970;11.774;2023-02-28T08:12:49;24.27;;;10.52;;
74158;SDS011;62511;47.970;11.774;2023-02-28T08:15:15;26.60;;;10.30;;
74158;SDS011;62511;47.970;11.774;2023-02-28T08:17:41;28.15;;;12.45;;
74158;SDS011;62511;47.970;11.774;2023-02-28T08:20:07;26.63;;;10.18;;
74158;SDS011;62511;47.970;11.774;2023-02-28T08:22:35;23.95;;;10.90;;
74158;SDS011;62511;47.970;11.774;2023-02-28T08:25:01;28.75;;;9.77;;
74158;SDS011;62511;47.970;11.774;2023-02-28T08:27:27;21.67;;;10.45;;
74158;SDS011;62511;47.970;11.774;2023-02-28T08:29:53;33.78;;;12.80;;
74158;SDS011;62511;47.970;11.774;2023-02-28T08:32:20;29.25;;;10.98;;
74158;SDS011;62511;47.970;11.774;2023-02-28T08:34:46;25.23;;;11.98;;
74158;SDS011;62511;47.970;11.774;2023-02-28T08:37:12;23.67;;;11.50;;
74158;SDS011;62511;47.970;11.774;2023-02-28T08:39:38;21.02;;;11.00;;
74158;SDS011;62511;47.970;11.774;2023-02-28T08:42:04;24.10;;;11.68;;
74158;SDS011;62511;47.970;11.774;2023-02-28T08:44:30;18.42;;;9.18;;
74158;SDS011;62511;47.970;11.774;2023-02-28T08:46:56;26.67;;;10.23;;
74158;SDS011;62511;47.970;11.774;2023-02-28T08:49:22;21.23;;;10.50;;
74158;SDS011;62511;47.970;11.774;2023-02-28T08:51:48;34.13;;;12.07;;
74158;SDS011;62511;47.970;11.774;2023-02-28T08:54:14;24.52;;;9.45;;
74158;SDS011;62511;47.970;11.774;2023-02-28T08:56:44;26.88;;;10.13;;
74158;SDS011;62511;47.970;11.774;2023-02-28T08:59:11;26.30;;;11.55;;
74158;SDS011;62511;47.970;11.774;2023-02-28T09:01:39;28.02;;;10.45;;
74158;SDS011;62511;47.970;11.774;2023-02-28T09:04:06;26.30;;;11.80;;
74158;SDS011;62511;47.970;11.774;2023-02-28T09:06:33;20.55;;;10.43;;
74158;SDS011;62511;47.970;11.774;2023-02-28T09:08:59;27.45;;;10.63;;
74158;SDS011;62511;47.970;11.774;2023-02-28T09:11:26;28.88;;;11.93;;
74158;SDS011;62511;47.970;11.774;2023-02-28T09:13:53;26.30;;;9.52;;
74158;SDS011;62511;47.970;11.774;2023-02-28T09:16:20;28.88;;;11.35;;
74158;SDS011;62511;47.970;11.774;2023-02-28T09:18:47;23.35;;;11.85;;
74158;SDS011;62511;47.970;11.774;2023-02-28T09:21:14;25.05;;;10.73;;
74158;SDS011;62511;47.970;11.774;2023-02-28T09:23:41;26.02;;;11.68;;
74158;SDS011;62511;47.970;11.774;2023-02-28T09:26:07;22.17;;;9.90;;
74158;SDS011;62511;47.970;11.774;2023-02-28T09:28:33;28.52;;;12.18;;
74158;SDS011;62511;47.970;11.774;2023-02-28T09:30:59;25.73;;;10.88;;
74158;SDS011;62511;47.970;11.774;2023-02-28T09:33:26;35.35;;;13.35;;
74158;SDS011;62511;47.970;11.774;2023-02-28T09:35:57;28.83;;;12.00;;
74158;SDS011;62511;47.970;11.774;2023-02-28T09:38:24;23.63;;;11.68;;
74158;SDS011;62511;47.970;11.774;2023-02-28T09:40:51;22.00;;;11.20;;
74158;SDS011;62511;47.970;11.774;2023-02-28T09:43:18;27.50;;;12.18;;
74158;SDS011;62511;47.970;11.774;2023-02-28T09:48:12;29.63;;;11.70;;
74158;SDS011;62511;47.970;11.774;2023-02-28T09:50:45;19.58;;;9.90;;
74158;SDS011;62511;47.970;11.774;2023-02-28T09:53:18;24.15;;;10.13;;
74158;SDS011;62511;47.970;11.774;2023-02-28T09:55:47;25.15;;;10.25;;
74158;SDS011;62511;47.970;11.774;2023-02-28T10:01:21;26.48;;;11.25;;
74158;SDS011;62511;47.970;11.774;2023-02-28T10:06:26;16.95;;;7.30;;
74158;SDS011;62511;47.970;11.774;2023-02-28T10:09:11;29.10;;;11.52;;
74158;SDS011;62511;47.970;11.774;2023-02-28T10:11:38;24.95;;;13.18;;
74158;SDS011;62511;47.970;11.774;2023-02-28T10:14:19;22.27;;;10.23;;
74158;SDS011;62511;47.970;11.774;2023-02-28T10:16:48;19.40;;;8.40;;
74158;SDS011;62511;47.970;11.774;2023-02-28T10:21:59;26.35;;;12.27;;
74158;SDS011;62511;47.970;11.774;2023-02-28T10:24:30;22.60;;;10.45;;
74158;SDS011;62511;47.970;11.774;2023-02-28T10:27:03;25.85;;;9.70;;
74158;SDS011;62511;47.970;11.774;2023-02-28T10:29:31;27.83;;;11.38;;
74158;SDS011;62511;47.970;11.774;2023-02-28T10:31:59;24.85;;;10.77;;
74158;SDS011;62511;47.970;11.774;2023-02-28T10:34:26;27.98;;;11.65;;
74158;SDS011;62511;47.970;11.774;2023-02-28T10:36:52;27.33;;;11.48;;
74158;SDS011;62511;47.970;11.774;2023-02-28T10:39:38;21.73;;;10.48;;
74158;SDS011;62511;47.970;11.774;2023-02-28T10:42:05;30.55;;;11.73;;
74158;SDS011;62511;47.970;11.774;2023-02-28T10:44:43;29.27;;;11.43;;
74158;SDS011;62511;47.970;11.774;2023-02-28T10:47:16;27.00;;;12.35;;
74158;SDS011;62511;47.970;11.774;2023-02-28T10:49:50;30.52;;;12.02;;
74158;SDS011;62511;47.970;11.774;2023-02-28T10:54:43;25.00;;;12.95;;
74158;SDS011;62511;47.970;11.774;2023-02-28T10:57:20;26.58;;;13.52;;
74158;SDS011;62511;47.970;11.774;2023-02-28T10:59:50;24.13;;;11.55;;
74158;SDS011;62511;47.970;11.774;2023-02-28T11:02:35;26.17;;;11.07;;
74158;SDS011;62511;47.970;11.774;2023-02-28T11:05:20;28.52;;;13.40;;
74158;SDS011;62511;47.970;11.774;2023-02-28T11:07:51;23.63;;;10.65;;
74158;SDS011;62511;47.970;11.774;2023-02-28T11:10:19;28.27;;;12.77;;
74158;SDS011;62511;47.970;11.774;2023-02-28T11:12:46;25.88;;;11.05;;
74158;SDS011;62511;47.970;11.774;2023-02-28T11:15:21;24.30;;;11.68;;
74158;SDS011;62511;47.970;11.774;2023-02-28T11:18:01;19.50;;;11.00;;
74158;SDS011;62511;47.970;11.774;2023-02-28T11:20:31;24.95;;;10.75;;
74158;SDS011;62511;47.970;11.774;2023-02-28T11:23:00;25.45;;;12.35;;
74158;SDS011;62511;47.970;11.774;2023-02-28T11:27:59;24.55;;;8.68;;
74158;SDS011;62511;47.970;11.774;2023-02-28T11:32:59;21.35;;;10.85;;
74158;SDS011;62511;47.970;11.774;2023-02-28T11:37:52;22.33;;;10.15;;
74158;SDS011;62511;47.970;11.774;2023-02-28T11:40:19;16.30;;;7.60;;
74158;SDS011;62511;47.970;11.774;2023-02-28T11:53:14;20.88;;;10.30;;
74158;SDS011;62511;47.970;11.774;2023-02-28T11:55:44;24.77;;;11.23;;
74158;SDS011;62511;47.970;11.774;2023-02-28T12:16:40;21.23;;;9.35;;
74158;SDS011;62511;47.970;11.774;2023-02-28T12:19:13;17.98;;;8.85;;
74158;SDS011;62511;47.970;11.774;2023-02-28T12:24:14;26.05;;;11.32;;
74158;SDS011;62511;47.970;11.774;2023-02-28T12:26:45;21.30;;;11.10;;
74158;SDS011;62511;47.970;11.774;2023-02-28T12:29:31;18.85;;;9.98;;
74158;SDS011;62511;47.970;11.774;2023-02-28T12:32:01;21.52;;;9.82;;
74158;SDS011;62511;47.970;11.774;2023-02-28T12:34:39;30.67;;;12.45;;
74158;SDS011;62511;47.970;11.774;2023-02-28T12:37:14;21.23;;;11.10;;
74158;SDS011;62511;47.970;11.774;2023-02-28T12:39:44;18.25;;;9.52;;
74158;SDS011;62511;47.970;11.774;2023-02-28T12:42:12;17.42;;;9.35;;
74158;SDS011;62511;47.970;11.774;2023-02-28T12:44:41;25.13;;;10.88;;
74158;SDS011;62511;47.970;11.774;2023-02-28T12:47:12;18.52;;;9.30;;
74158;SDS011;62511;47.970;11.774;2023-02-28T12:49:44;22.17;;;10.93;;
74158;SDS011;62511;47.970;11.774;2023-02-28T12:52:12;17.35;;;8.35;;
74158;SDS011;62511;47.970;11.774;2023-02-28T13:00:08;26.85;;;13.30;;
74158;SDS011;62511;47.970;11.774;2023-02-28T13:05:00;25.73;;;12.60;;
74158;SDS011;62511;47.970;11.774;2023-02-28T13:10:03;22.55;;;10.93;;
74158;SDS011;62511;47.970;11.774;2023-02-28T13:12:31;25.90;;;11.02;;
74158;SDS011;62511;47.970;11.774;2023-02-28T13:17:44;23.20;;;11.07;;
74158;SDS011;62511;47.970;11.774;2023-02-28T13:20:18;23.13;;;11.55;;
74158;SDS011;62511;47.970;11.774;2023-02-28T13:22:45;27.23;;;9.60;;
74158;SDS011;62511;47.970;11.774;2023-02-28T13:27:46;19.15;;;9.45;;
74158;SDS011;62511;47.970;11.774;2023-02-28T13:35:45;22.23;;;11.20;;
74158;SDS011;62511;47.970;11.774;2023-02-28T13:38:13;24.08;;;10.75;;
74158;SDS011;62511;47.970;11.774;2023-02-28T13:40:42;19.52;;;10.60;;
74158;SDS011;62511;47.970;11.774;2023-02-28T13:43:08;20.13;;;10.85;;
74158;SDS011;62511;47.970;11.774;2023-02-28T13:45:34;16.65;;;8.82;;
74158;SDS011;62511;47.970;11.774;2023-02-28T13:48:24;21.85;;;8.93;;
74158;SDS011;62511;47.970;11.774;2023-02-28T13:50:49;23.40;;;10.85;;
74158;SDS011;62511;47.970;11.774;2023-02-28T13:55:46;20.10;;;9.32;;
74158;SDS011;62511;47.970;11.774;2023-02-28T13:58:36;22.42;;;11.70;;
74158;SDS011;62511;47.970;11.774;2023-02-28T14:03:46;19.85;;;10.38;;
74158;SDS011;62511;47.970;11.774;2023-02-28T14:06:19;23.05;;;9.90;;
74158;SDS011;62511;47.970;11.774;2023-02-28T14:09:02;20.00;;;9.52;;
74158;SDS011;62511;47.970;11.774;2023-02-28T14:11:33;21.63;;;10.68;;
74158;SDS011;62511;47.970;11.774;2023-02-28T14:14:00;13.45;;;7.07;;
74158;SDS011;62511;47.970;11.774;2023-02-28T14:16:27;19.17;;;8.77;;
74158;SDS011;62511;47.970;11.774;2023-02-28T14:19:01;23.52;;;11.43;;
74158;SDS011;62511;47.970;11.774;2023-02-28T14:23:58;19.42;;;9.45;;
74158;SDS011;62511;47.970;11.774;2023-02-28T14:36:42;14.35;;;6.80;;
74158;SDS011;62511;47.970;11.774;2023-02-28T14:41:40;14.95;;;7.35;;
74158;SDS011;62511;47.970;11.774;2023-02-28T14:46:45;20.15;;;8.57;;
74158;SDS011;62511;47.970;11.774;2023-02-28T14:49:21;20.42;;;9.35;;
74158;SDS011;62511;47.970;11.774;2023-02-28T14:51:49;25.38;;;11.75;;
74158;SDS011;62511;47.970;11.774;2023-02-28T14:54:16;19.60;;;8.98;;
74158;SDS011;62511;47.970;11.774;2023-02-28T14:56:48;19.38;;;7.50;;
74158;SDS011;62511;47.970;11.774;2023-02-28T14:59:29;17.98;;;9.52;;
74158;SDS011;62511;47.970;11.774;2023-02-28T15:04:40;20.15;;;10.35;;
74158;SDS011;62511;47.970;11.774;2023-02-28T15:07:10;21.42;;;9.23;;
74158;SDS011;62511;47.970;11.774;2023-02-28T15:09:36;26.58;;;7.60;;
74158;SDS011;62511;47.970;11.774;2023-02-28T15:12:02;16.40;;;8.52;;
74158;SDS011;62511;47.970;11.774;2023-02-28T15:14:28;23.33;;;10.23;;
74158;SDS011;62511;47.970;11.774;2023-02-28T15:16:59;24.83;;;11.05;;
74158;SDS011;62511;47.970;11.774;2023-02-28T15:19:32;25.70;;;10.13;;
74158;SDS011;62511;47.970;11.774;2023-02-28T15:22:02;21.73;;;10.38;;
74158;SDS011;62511;47.970;11.774;2023-02-28T15:24:40;22.30;;;11.35;;
74158;SDS011;62511;47.970;11.774;2023-02-28T15:27:10;21.02;;;8.43;;
74158;SDS011;62511;47.970;11.774;2023-02-28T15:29:46;22.55;;;10.27;;
74158;SDS011;62511;47.970;11.774;2023-02-28T15:34:53;22.58;;;10.40;;
74158;SDS011;62511;47.970;11.774;2023-02-28T15:40:43;19.23;;;7.97;;
74158;SDS011;62511;47.970;11.774;2023-02-28T15:42:57;14.80;;;9.27;;
74158;SDS011;62511;47.970;11.774;2023-02-28T15:45:27;14.50;;;7.20;;
74158;SDS011;62511;47.970;11.774;2023-02-28T15:47:53;26.60;;;11.30;;
74158;SDS011;62511;47.970;11.774;2023-02-28T15:50:19;19.38;;;8.75;;
74158;SDS011;62511;47.970;11.774;2023-02-28T15:52:46;22.75;;;9.63;;
74158;SDS011;62511;47.970;11.774;2023-02-28T15:57:45;24.48;;;12.07;;
74158;SDS011;62511;47.970;11.774;2023-02-28T16:00:13;20.42;;;9.35;;
74158;SDS011;62511;47.970;11.774;2023-02-28T16:02:39;16.70;;;8.63;;
74158;SDS011;62511;47.970;11.774;2023-02-28T16:07:36;22.02;;;10.10;;
74158;SDS011;62511;47.970;11.774;2023-02-28T16:10:03;16.95;;;8.65;;
74158;SDS011;62511;47.970;11.774;2023-02-28T16:12:31;18.80;;;8.07;;
74158;SDS011;62511;47.970;11.774;2023-02-28T16:14:58;18.55;;;8.75;;
74158;SDS011;62511;47.970;11.774;2023-02-28T16:17:26;23.55;;;9.93;;
74158;SDS011;62511;47.970;11.774;2023-02-28T16:19:53;22.33;;;10.05;;
74158;SDS011;62511;47.970;11.774;2023-02-28T16:22:19;26.00;;;10.30;;
74158;SDS011;62511;47.970;11.774;2023-02-28T16:24:45;18.35;;;9.27;;
74158;SDS011;62511;47.970;11.774;2023-02-28T16:27:31;24.08;;;10.85;;
74158;SDS011;62511;47.970;11.774;2023-02-28T16:29:58;20.27;;;9.43;;
74158;SDS011;62511;47.970;11.774;2023-02-28T16:32:24;17.02;;;10.38;;
74158;SDS011;62511;47.970;11.774;2023-02-28T16:34:50;26.67;;;11.30;;
74158;SDS011;62511;47.970;11.774;2023-02-28T16:37:17;27.73;;;11.57;;
74158;SDS011;62511;47.970;11.774;2023-02-28T16:39:43;20.65;;;9.27;;
74158;SDS011;62511;47.970;11.774;2023-02-28T16:42:30;23.20;;;10.57;;
74158;SDS011;62511;47.970;11.774;2023-02-28T16:44:55;24.48;;;12.38;;
74158;SDS011;62511;47.970;11.774;2023-02-28T16:47:23;19.55;;;9.32;;
74158;SDS011;62511;47.970;11.774;2023-02-28T16:49:51;18.77;;;8.93;;
74158;SDS011;62511;47.970;11.774;2023-02-28T16:52:17;20.38;;;11.00;;
74158;SDS011;62511;47.970;11.774;2023-02-28T16:54:43;27.15;;;10.68;;
74158;SDS011;62511;47.970;11.774;2023-02-28T16:57:15;24.77;;;10.35;;
74158;SDS011;62511;47.970;11.774;2023-02-28T16:59:43;24.08;;;10.88;;
74158;SDS011;62511;47.970;11.774;2023-02-28T17:02:12;24.20;;;10.05;;